createdAt,value
2023-02-20T00:00:26.605Z,0.50
2023-02-20T00:00:58.889Z,0.50
2023-02-20T00:01:32.200Z,0.60
2023-02-20T00:02:07.382Z,0.60
2023-02-20T00:02:39.637Z,0.60
2023-02-20T00:03:15.147Z,0.50
2023-02-20T00:03:50.035Z,0.70
2023-02-20T00:04:25.192Z,0.77
2023-02-20T00:05:00.084Z,0.60
2023-02-20T00:05:32.384Z,0.60
2023-02-20T00:06:05.002Z,0.70
2023-02-20T00:06:39.824Z,0.50
2023-02-20T00:07:12.078Z,0.70
2023-02-20T00:07:45.331Z,0.60
2023-02-20T00:08:17.581Z,0.50
2023-02-20T00:08:52.464Z,0.60
2023-02-20T00:09:24.697Z,0.50
2023-02-20T00:09:56.952Z,0.73
2023-02-20T00:10:31.804Z,0.90
2023-02-20T00:11:04.433Z,0.60
2023-02-20T00:11:36.656Z,0.70
2023-02-20T00:12:11.545Z,0.60
2023-02-20T00:12:44.005Z,0.60
2023-02-20T00:13:16.280Z,0.70
2023-02-20T00:13:52.445Z,0.60
2023-02-20T00:14:24.682Z,0.80
2023-02-20T00:14:56.914Z,0.50
2023-02-20T00:15:31.797Z,0.60
2023-02-20T00:16:04.249Z,0.70
2023-02-20T00:16:36.520Z,0.60
2023-02-20T00:17:11.417Z,0.60
2023-02-20T00:17:44.645Z,0.50
2023-02-20T00:18:19.533Z,0.60
2023-02-20T00:18:51.842Z,0.70
2023-02-20T00:19:26.668Z,0.50
2023-02-20T00:20:01.499Z,0.50
2023-02-20T00:20:33.925Z,0.50
2023-02-20T00:21:06.841Z,0.50
2023-02-20T00:21:48.064Z,0.50
2023-02-20T00:22:22.167Z,0.70
2023-02-20T00:22:55.645Z,0.50
2023-02-20T00:23:30.467Z,0.50
2023-02-20T00:24:02.725Z,0.73
2023-02-20T00:24:35.500Z,0.60
2023-02-20T00:25:10.610Z,0.60
2023-02-20T00:25:42.826Z,0.40
2023-02-20T00:26:15.873Z,0.67
2023-02-20T00:26:52.602Z,0.60
2023-02-20T00:27:24.846Z,0.60
2023-02-20T00:27:57.115Z,0.60
2023-02-20T00:28:32.643Z,0.60
2023-02-20T00:29:05.607Z,0.53
2023-02-20T00:29:38.247Z,0.60
2023-02-20T00:30:17.582Z,0.50
2023-02-20T00:30:50.021Z,0.57
2023-02-20T00:31:22.343Z,0.70
2023-02-20T00:31:58.780Z,0.67
2023-02-20T00:32:31.017Z,0.50
2023-02-20T00:33:06.341Z,0.50
2023-02-20T00:33:41.200Z,0.60
2023-02-20T00:34:14.753Z,0.47
2023-02-20T00:34:52.597Z,0.60
2023-02-20T00:35:28.752Z,0.70
2023-02-20T00:36:01.135Z,0.50
2023-02-20T00:36:33.449Z,0.70
2023-02-20T00:37:06.146Z,0.60
2023-02-20T00:37:41.257Z,0.50
2023-02-20T00:38:13.773Z,0.83
2023-02-20T00:38:46.380Z,0.60
2023-02-20T00:39:21.360Z,0.63
2023-02-20T00:39:53.630Z,0.60
2023-02-20T00:40:26.395Z,0.70
2023-02-20T00:41:01.251Z,0.60
2023-02-20T00:41:33.504Z,0.63
2023-02-20T00:42:05.836Z,0.60
2023-02-20T00:42:38.178Z,0.67
2023-02-20T00:43:13.476Z,0.53
2023-02-20T00:43:45.712Z,0.70
2023-02-20T00:44:18.065Z,0.70
2023-02-20T00:44:55.090Z,0.63
2023-02-20T00:45:29.424Z,0.77
2023-02-20T00:46:01.691Z,0.60
2023-02-20T00:46:36.599Z,0.70
2023-02-20T00:47:08.867Z,0.70
2023-02-20T00:47:41.116Z,0.60
2023-02-20T00:48:15.947Z,0.60
2023-02-20T00:48:49.684Z,0.53
2023-02-20T00:49:40.233Z,0.50
2023-02-20T00:50:24.640Z,0.60
2023-02-20T00:50:56.879Z,0.60
2023-02-20T00:51:29.481Z,0.63
2023-02-20T00:52:04.391Z,0.80
2023-02-20T00:52:36.649Z,0.60
2023-02-20T00:53:08.907Z,0.50
2023-02-20T00:53:43.753Z,0.70
2023-02-20T00:54:16.056Z,0.60
2023-02-20T00:54:48.298Z,0.67
2023-02-20T00:55:23.285Z,0.60
2023-02-20T00:55:55.537Z,0.57
2023-02-20T00:56:27.836Z,0.70
2023-02-20T00:57:04.626Z,0.67
2023-02-20T00:57:36.897Z,0.60
2023-02-20T00:58:09.124Z,0.60
2023-02-20T00:58:44.105Z,0.57
2023-02-20T00:59:16.540Z,0.60
2023-02-20T00:59:48.866Z,0.60
2023-02-20T01:00:28.096Z,0.60
2023-02-20T01:01:00.351Z,0.60
2023-02-20T01:01:32.809Z,0.70
2023-02-20T01:02:08.029Z,0.50
2023-02-20T01:02:40.784Z,0.70
2023-02-20T01:03:15.212Z,0.70
2023-02-20T01:03:50.124Z,0.80
2023-02-20T01:04:22.395Z,0.80
2023-02-20T01:04:56.829Z,0.60
2023-02-20T01:05:34.324Z,0.80
2023-02-20T01:06:06.849Z,0.80
2023-02-20T01:06:39.072Z,0.63
2023-02-20T01:07:11.625Z,0.70
2023-02-20T01:07:47.016Z,0.70
2023-02-20T01:08:19.284Z,0.60
2023-02-20T01:08:51.833Z,0.60
2023-02-20T01:09:29.093Z,0.63
2023-02-20T01:10:01.341Z,0.70
2023-02-20T01:10:33.639Z,0.50
2023-02-20T01:11:09.587Z,0.73
2023-02-20T01:11:42.292Z,0.70
2023-02-20T01:12:14.524Z,0.70
2023-02-20T01:12:49.508Z,0.70
2023-02-20T01:13:21.862Z,0.50
2023-02-20T01:13:54.101Z,0.73
2023-02-20T01:14:29.019Z,0.70
2023-02-20T01:15:01.276Z,0.60
2023-02-20T01:15:34.277Z,0.50
2023-02-20T01:16:10.437Z,0.70
2023-02-20T01:16:46.142Z,0.60
2023-02-20T01:17:18.736Z,0.50
2023-02-20T01:17:54.808Z,0.67
2023-02-20T01:18:29.685Z,0.60
2023-02-20T01:19:01.950Z,0.60
2023-02-20T01:19:37.536Z,0.63
2023-02-20T01:20:10.983Z,0.60
2023-02-20T01:20:45.896Z,0.60
2023-02-20T01:21:20.849Z,0.67
2023-02-20T01:21:54.339Z,0.60
2023-02-20T01:22:26.603Z,0.67
2023-02-20T01:23:01.579Z,0.60
2023-02-20T01:23:33.848Z,0.70
2023-02-20T01:24:06.524Z,0.80
2023-02-20T01:24:42.193Z,0.80
2023-02-20T01:25:14.577Z,0.67
2023-02-20T01:25:46.853Z,0.90
2023-02-20T01:26:22.085Z,0.70
2023-02-20T01:26:56.432Z,0.63
2023-02-20T01:27:28.698Z,0.70
2023-02-20T01:28:00.976Z,0.70
2023-02-20T01:28:35.877Z,0.60
2023-02-20T01:29:09.425Z,0.70
2023-02-20T01:29:41.688Z,0.60
2023-02-20T01:30:14.232Z,0.60
2023-02-20T01:30:50.481Z,0.90
2023-02-20T01:31:22.908Z,0.77
2023-02-20T01:31:55.360Z,0.60
2023-02-20T01:32:30.285Z,0.70
2023-02-20T01:33:02.744Z,0.60
2023-02-20T01:33:35.388Z,0.60
2023-02-20T01:34:10.486Z,0.60
2023-02-20T01:34:42.803Z,0.60
2023-02-20T01:35:18.028Z,0.80
2023-02-20T01:35:52.872Z,0.70
2023-02-20T01:36:27.586Z,0.70
2023-02-20T01:37:02.919Z,0.67
2023-02-20T01:37:35.304Z,0.60
2023-02-20T01:38:07.551Z,0.70
2023-02-20T01:38:44.260Z,0.70
2023-02-20T01:39:18.672Z,0.60
2023-02-20T01:39:51.312Z,0.60
2023-02-20T01:40:27.298Z,0.60
2023-02-20T01:40:59.524Z,0.70
2023-02-20T01:41:31.801Z,0.83
2023-02-20T01:42:10.817Z,0.70
2023-02-20T01:42:43.113Z,0.77
2023-02-20T01:43:15.463Z,0.70
2023-02-20T01:43:50.305Z,0.80
2023-02-20T01:44:24.831Z,0.70
2023-02-20T01:45:17.468Z,0.70
2023-02-20T01:45:52.369Z,0.63
2023-02-20T01:46:52.203Z,0.60
2023-02-20T01:47:25.864Z,0.70
2023-02-20T01:48:00.775Z,0.60
2023-02-20T01:48:33.002Z,0.80
2023-02-20T01:49:07.055Z,0.70
2023-02-20T01:49:45.148Z,0.70
2023-02-20T01:50:18.632Z,0.73
2023-02-20T01:51:00.375Z,0.60
2023-02-20T01:51:34.904Z,0.70
2023-02-20T01:52:12.302Z,0.60
2023-02-20T01:52:48.360Z,0.80
2023-02-20T01:53:22.640Z,0.60
2023-02-20T01:53:54.956Z,0.63
2023-02-20T01:54:31.966Z,0.70
2023-02-20T01:55:06.448Z,0.70
2023-02-20T01:55:42.108Z,0.73
2023-02-20T01:56:16.992Z,0.90
2023-02-20T01:56:49.769Z,0.83
2023-02-20T01:57:24.549Z,0.70
2023-02-20T01:58:01.520Z,0.70
2023-02-20T01:58:36.132Z,0.60
2023-02-20T01:59:09.017Z,0.50
2023-02-20T01:59:44.349Z,0.73
2023-02-20T02:00:24.341Z,0.70
2023-02-20T02:00:57.969Z,0.60
2023-02-20T02:01:33.014Z,0.70
2023-02-20T02:02:06.247Z,0.80
2023-02-20T02:02:40.939Z,0.70
2023-02-20T02:03:21.761Z,0.60
2023-02-20T02:03:57.722Z,0.70
2023-02-20T02:04:30.421Z,0.63
2023-02-20T02:05:05.765Z,0.90
2023-02-20T02:05:40.282Z,0.80
2023-02-20T02:06:15.833Z,0.80
2023-02-20T02:06:53.036Z,0.60
2023-02-20T02:07:25.397Z,0.53
2023-02-20T02:07:58.488Z,0.70
2023-02-20T02:08:33.459Z,0.60
2023-02-20T02:09:10.764Z,0.90
2023-02-20T02:09:52.300Z,0.70
2023-02-20T02:10:29.737Z,0.77
2023-02-20T02:11:05.443Z,0.73
2023-02-20T02:11:39.923Z,0.50
2023-02-20T02:12:14.829Z,0.70
2023-02-20T02:12:49.889Z,0.80
2023-02-20T02:13:22.332Z,0.70
2023-02-20T02:13:57.193Z,0.60
2023-02-20T02:14:29.708Z,0.70
2023-02-20T02:15:04.556Z,0.90
2023-02-20T02:15:36.817Z,0.73
2023-02-20T02:16:17.181Z,0.60
2023-02-20T02:17:02.823Z,0.60
2023-02-20T02:17:58.753Z,0.67
2023-02-20T02:18:48.075Z,0.60
2023-02-20T02:19:39.912Z,0.83
2023-02-20T02:20:32.258Z,0.70
2023-02-20T02:21:38.856Z,0.70
2023-02-20T02:22:43.920Z,0.73
2023-02-20T02:23:45.306Z,0.80
2023-02-20T02:24:43.444Z,0.70
2023-02-20T02:25:35.237Z,0.50
2023-02-20T02:26:27.104Z,0.70
2023-02-20T02:27:24.809Z,0.90
2023-02-20T02:28:36.919Z,0.60
2023-02-20T02:29:42.784Z,0.70
2023-02-20T02:30:39.157Z,0.60
2023-02-20T02:31:36.624Z,0.70
2023-02-20T02:32:58.887Z,0.53
2023-02-20T02:33:51.734Z,0.90
2023-02-20T02:34:50.756Z,0.60
2023-02-20T02:35:39.636Z,0.70
2023-02-20T02:36:27.759Z,0.60
2023-02-20T02:37:07.227Z,0.70
2023-02-20T02:37:45.976Z,0.77
2023-02-20T02:38:27.410Z,0.90
2023-02-20T02:39:05.173Z,0.67
2023-02-20T02:39:46.455Z,0.80
2023-02-20T02:40:26.377Z,0.70
2023-02-20T02:41:05.815Z,0.73
2023-02-20T02:41:45.676Z,0.73
2023-02-20T02:42:24.629Z,0.60
2023-02-20T02:43:05.865Z,0.60
2023-02-20T02:43:44.563Z,0.80
2023-02-20T02:44:20.140Z,0.63
2023-02-20T02:44:58.218Z,0.60
2023-02-20T02:45:34.838Z,0.83
2023-02-20T02:46:09.952Z,0.90
2023-02-20T02:46:47.687Z,0.63
2023-02-20T02:47:24.141Z,0.60
2023-02-20T02:48:00.678Z,0.70
2023-02-20T02:48:39.200Z,0.80
2023-02-20T02:49:18.510Z,0.80
2023-02-20T02:49:58.017Z,0.70
2023-02-20T02:50:34.725Z,0.70
2023-02-20T02:51:11.505Z,0.57
2023-02-20T02:51:50.228Z,0.70
2023-02-20T02:52:38.712Z,0.70
2023-02-20T02:53:13.867Z,0.70
2023-02-20T02:54:07.953Z,0.80
2023-02-20T02:54:40.312Z,0.70
2023-02-20T02:55:16.212Z,0.80
2023-02-20T02:55:48.519Z,0.70
2023-02-20T02:56:23.379Z,0.60
2023-02-20T02:57:25.732Z,0.70
2023-02-20T02:57:58.110Z,0.73
2023-02-20T02:58:30.408Z,0.80
2023-02-20T02:59:02.851Z,0.80
2023-02-20T02:59:37.885Z,0.57
2023-02-20T03:00:13.290Z,0.60
2023-02-20T03:00:48.228Z,0.60
2023-02-20T03:01:23.743Z,0.70
2023-02-20T03:01:59.810Z,0.63
2023-02-20T03:02:34.501Z,0.63
2023-02-20T03:03:11.830Z,0.60
2023-02-20T03:03:45.500Z,0.73
2023-02-20T03:04:23.441Z,0.70
2023-02-20T03:04:59.309Z,0.60
2023-02-20T03:05:40.148Z,0.80
2023-02-20T03:06:18.387Z,0.60
2023-02-20T03:06:53.221Z,0.60
2023-02-20T03:07:26.543Z,0.70
2023-02-20T03:08:01.852Z,0.70
2023-02-20T03:08:38.927Z,0.60
2023-02-20T03:09:13.676Z,0.60
2023-02-20T03:09:51.475Z,0.70
2023-02-20T03:10:32.000Z,0.70
2023-02-20T03:11:07.768Z,0.87
2023-02-20T03:11:44.500Z,0.77
2023-02-20T03:12:21.493Z,0.80
2023-02-20T03:12:54.711Z,0.70
2023-02-20T03:13:47.305Z,0.70
2023-02-20T03:14:37.203Z,0.70
2023-02-20T03:15:27.851Z,0.80
2023-02-20T03:16:04.482Z,0.60
2023-02-20T03:16:41.962Z,0.80
2023-02-20T03:17:18.025Z,0.70
2023-02-20T03:18:01.303Z,0.90
2023-02-20T03:18:39.071Z,0.80
2023-02-20T03:19:14.070Z,0.80
2023-02-20T03:19:50.909Z,0.60
2023-02-20T03:20:23.504Z,0.73
2023-02-20T03:20:58.569Z,0.70
2023-02-20T03:21:34.596Z,0.70
2023-02-20T03:22:11.447Z,0.70
2023-02-20T03:22:47.985Z,0.60
2023-02-20T03:23:27.396Z,0.70
2023-02-20T03:24:00.868Z,0.77
2023-02-20T03:24:53.974Z,0.60
2023-02-20T03:25:33.136Z,0.60
2023-02-20T03:26:07.503Z,0.70
2023-02-20T03:26:42.613Z,0.90
2023-02-20T03:27:17.504Z,0.70
2023-02-20T03:27:56.736Z,0.57
2023-02-20T03:28:35.399Z,0.80
2023-02-20T03:29:12.957Z,0.80
2023-02-20T03:29:47.753Z,0.70
2023-02-20T03:30:25.378Z,0.90
2023-02-20T03:31:00.620Z,0.80
2023-02-20T03:31:35.425Z,0.70
2023-02-20T03:32:25.198Z,0.60
2023-02-20T03:33:16.248Z,0.60
2023-02-20T03:34:06.004Z,0.70
2023-02-20T03:34:53.526Z,0.50
2023-02-20T03:35:41.506Z,0.80
2023-02-20T03:36:31.596Z,0.60
2023-02-20T03:37:22.003Z,0.70
2023-02-20T03:38:10.968Z,0.60
2023-02-20T03:39:01.654Z,0.70
2023-02-20T03:39:51.720Z,0.90
2023-02-20T03:40:39.781Z,0.70
2023-02-20T03:41:29.695Z,1.00
2023-02-20T03:42:19.807Z,0.63
2023-02-20T03:43:16.803Z,0.67
2023-02-20T03:43:51.973Z,0.63
2023-02-20T03:44:25.264Z,0.60
2023-02-20T03:44:58.263Z,0.70
2023-02-20T03:45:34.562Z,0.70
2023-02-20T03:46:12.128Z,0.80
2023-02-20T03:46:46.180Z,0.60
2023-02-20T03:47:25.627Z,0.80
2023-02-20T03:48:01.243Z,0.80
2023-02-20T03:48:38.335Z,0.70
2023-02-20T03:49:15.631Z,0.70
2023-02-20T03:49:54.657Z,0.60
2023-02-20T03:50:27.323Z,0.77
2023-02-20T03:51:13.379Z,0.60
2023-02-20T03:52:00.247Z,0.70
2023-02-20T03:52:41.023Z,0.60
2023-02-20T03:53:13.873Z,0.80
2023-02-20T03:53:49.219Z,0.80
2023-02-20T03:54:21.579Z,0.70
2023-02-20T03:54:54.689Z,0.77
2023-02-20T03:55:29.924Z,0.70
2023-02-20T03:56:08.244Z,0.63
2023-02-20T03:56:43.525Z,0.50
2023-02-20T03:57:22.832Z,0.60
2023-02-20T03:58:03.056Z,0.80
2023-02-20T03:58:40.944Z,0.70
2023-02-20T03:59:18.853Z,0.70
2023-02-20T03:59:54.084Z,0.67
2023-02-20T04:00:30.327Z,0.80
2023-02-20T04:01:07.170Z,0.70
2023-02-20T04:01:39.932Z,0.70
2023-02-20T04:02:16.550Z,0.93
2023-02-20T04:02:54.436Z,0.70
2023-02-20T04:03:33.773Z,0.87
2023-02-20T04:04:07.154Z,0.80
2023-02-20T04:04:45.142Z,0.80
2023-02-20T04:05:21.029Z,0.60
2023-02-20T04:05:55.791Z,0.73
2023-02-20T04:06:38.919Z,0.80
2023-02-20T04:07:16.181Z,0.80
2023-02-20T04:07:51.728Z,0.70
2023-02-20T04:08:35.889Z,0.70
2023-02-20T04:09:10.875Z,0.50
2023-02-20T04:09:46.544Z,0.60
2023-02-20T04:10:25.676Z,0.70
2023-02-20T04:11:00.763Z,0.93
2023-02-20T04:11:36.668Z,0.80
2023-02-20T04:12:15.261Z,0.60
2023-02-20T04:12:51.009Z,0.80
2023-02-20T04:13:26.637Z,0.67
2023-02-20T04:14:04.748Z,0.70
2023-02-20T04:14:37.935Z,0.73
2023-02-20T04:15:11.442Z,0.73
2023-02-20T04:15:44.589Z,0.67
2023-02-20T04:16:19.558Z,0.57
2023-02-20T04:16:56.262Z,0.87
2023-02-20T04:17:32.364Z,0.70
2023-02-20T04:18:10.445Z,0.70
2023-02-20T04:18:43.449Z,0.60
2023-02-20T04:19:15.897Z,0.63
2023-02-20T04:19:51.847Z,0.80
2023-02-20T04:20:24.317Z,0.70
2023-02-20T04:21:08.955Z,0.70
2023-02-20T04:21:49.838Z,0.70
2023-02-20T04:22:25.620Z,0.60
2023-02-20T04:23:08.187Z,0.90
2023-02-20T04:23:45.055Z,0.87
2023-02-20T04:24:20.670Z,0.73
2023-02-20T04:24:56.991Z,0.80
2023-02-20T04:25:39.264Z,0.70
2023-02-20T04:26:17.019Z,0.70
2023-02-20T04:26:51.521Z,0.60
2023-02-20T04:27:26.625Z,0.70
2023-02-20T04:28:02.272Z,0.70
2023-02-20T04:28:41.116Z,0.63
2023-02-20T04:29:14.138Z,0.80
2023-02-20T04:29:47.879Z,0.90
2023-02-20T04:30:23.209Z,0.77
2023-02-20T04:30:55.750Z,0.53
2023-02-20T04:31:28.500Z,1.00
2023-02-20T04:32:03.405Z,0.67
2023-02-20T04:32:39.632Z,0.70
2023-02-20T04:33:12.172Z,0.80
2023-02-20T04:33:47.143Z,0.70
2023-02-20T04:34:24.789Z,0.70
2023-02-20T04:34:57.728Z,0.63
2023-02-20T04:35:33.856Z,0.77
2023-02-20T04:36:07.652Z,0.80
2023-02-20T04:36:42.786Z,0.83
2023-02-20T04:37:17.087Z,0.93
2023-02-20T04:37:49.693Z,0.60
2023-02-20T04:38:24.557Z,0.67
2023-02-20T04:38:57.541Z,0.70
2023-02-20T04:39:33.848Z,0.70
2023-02-20T04:40:09.594Z,0.60
2023-02-20T04:40:41.861Z,0.73
2023-02-20T04:41:14.730Z,0.60
2023-02-20T04:41:49.817Z,0.77
2023-02-20T04:42:22.202Z,0.60
2023-02-20T04:42:55.900Z,0.70
2023-02-20T04:43:30.827Z,0.70
2023-02-20T04:44:21.160Z,0.70
2023-02-20T04:44:55.326Z,0.60
2023-02-20T04:45:30.212Z,0.60
2023-02-20T04:46:03.046Z,0.70
2023-02-20T04:46:36.592Z,0.80
2023-02-20T04:47:15.694Z,0.70
2023-02-20T04:47:48.956Z,0.67
2023-02-20T04:48:22.432Z,0.87
2023-02-20T04:48:54.695Z,0.70
2023-02-20T04:49:30.676Z,0.77
2023-02-20T04:50:06.996Z,0.83
2023-02-20T04:50:41.243Z,0.70
2023-02-20T04:51:16.898Z,0.90
2023-02-20T04:51:49.226Z,0.63
2023-02-20T04:52:21.966Z,0.80
2023-02-20T04:52:57.862Z,0.70
2023-02-20T04:53:30.944Z,0.73
2023-02-20T04:54:04.398Z,0.67
2023-02-20T04:54:40.054Z,0.63
2023-02-20T04:55:14.532Z,0.60
2023-02-20T04:55:46.767Z,0.73
2023-02-20T04:56:25.715Z,0.70
2023-02-20T04:56:59.174Z,0.70
2023-02-20T04:57:31.450Z,0.70
2023-02-20T04:58:06.308Z,0.80
2023-02-20T04:58:52.655Z,0.80
2023-02-20T04:59:32.943Z,0.80
2023-02-20T05:00:06.070Z,0.70
2023-02-20T05:00:38.327Z,0.70
2023-02-20T05:01:13.623Z,0.60
2023-02-20T05:01:48.304Z,0.60
2023-02-20T05:02:20.699Z,0.80
2023-02-20T05:02:55.899Z,0.87
2023-02-20T05:03:28.164Z,0.70
2023-02-20T05:04:00.393Z,0.67
2023-02-20T05:04:35.308Z,0.70
2023-02-20T05:05:15.908Z,0.80
2023-02-20T05:05:51.011Z,0.80
2023-02-20T05:06:23.276Z,0.60
2023-02-20T05:06:56.413Z,0.70
2023-02-20T05:07:31.317Z,0.83
2023-02-20T05:08:05.009Z,0.80
2023-02-20T05:08:37.250Z,0.60
2023-02-20T05:09:12.169Z,0.70
2023-02-20T05:09:44.575Z,0.60
2023-02-20T05:10:19.631Z,0.97
2023-02-20T05:10:54.477Z,0.80
2023-02-20T05:11:26.754Z,0.70
2023-02-20T05:11:59.010Z,0.60
2023-02-20T05:12:33.870Z,0.60
2023-02-20T05:13:06.139Z,0.80
2023-02-20T05:13:38.373Z,0.73
2023-02-20T05:14:13.453Z,0.70
2023-02-20T05:14:48.318Z,0.60
2023-02-20T05:15:21.039Z,0.60
2023-02-20T05:15:55.916Z,0.77
2023-02-20T05:16:28.172Z,0.70
2023-02-20T05:17:00.428Z,0.60
2023-02-20T05:17:35.284Z,0.90
2023-02-20T05:18:07.569Z,0.67
2023-02-20T05:18:40.233Z,0.70
2023-02-20T05:19:15.695Z,0.73
2023-02-20T05:19:48.596Z,0.70
2023-02-20T05:20:20.926Z,0.87
2023-02-20T05:21:08.172Z,0.70
2023-02-20T05:21:57.408Z,0.70
2023-02-20T05:22:29.660Z,0.60
2023-02-20T05:23:01.887Z,0.80
2023-02-20T05:23:36.765Z,0.60
2023-02-20T05:24:09.763Z,0.67
2023-02-20T05:24:46.309Z,0.70
2023-02-20T05:25:18.751Z,0.70
2023-02-20T05:25:54.854Z,0.73
2023-02-20T05:26:29.687Z,0.70
2023-02-20T05:27:01.957Z,0.77
2023-02-20T05:27:36.840Z,0.80
2023-02-20T05:28:09.086Z,0.70
2023-02-20T05:28:41.334Z,0.73
2023-02-20T05:29:16.258Z,0.83
2023-02-20T05:29:52.232Z,0.70
2023-02-20T05:30:24.519Z,0.70
2023-02-20T05:30:59.655Z,0.80
2023-02-20T05:31:31.990Z,0.70
2023-02-20T05:32:04.485Z,0.80
2023-02-20T05:32:39.400Z,0.60
2023-02-20T05:33:11.623Z,0.67
2023-02-20T05:33:43.846Z,0.77
2023-02-20T05:34:21.368Z,0.67
2023-02-20T05:34:53.803Z,0.80
2023-02-20T05:35:28.709Z,0.60
2023-02-20T05:36:01.122Z,0.63
2023-02-20T05:36:33.408Z,0.60
2023-02-20T05:37:08.247Z,0.80
2023-02-20T05:37:40.525Z,0.80
2023-02-20T05:38:17.331Z,0.70
2023-02-20T05:38:52.189Z,0.70
2023-02-20T05:39:24.439Z,0.90
2023-02-20T05:39:56.734Z,0.70
2023-02-20T05:40:32.453Z,0.80
2023-02-20T05:41:04.931Z,0.70
2023-02-20T05:41:37.571Z,0.60
2023-02-20T05:42:12.838Z,0.83
2023-02-20T05:42:45.130Z,0.90
2023-02-20T05:43:17.700Z,0.80
2023-02-20T05:43:54.755Z,0.70
2023-02-20T05:44:26.994Z,0.90
2023-02-20T05:45:04.846Z,0.67
2023-02-20T05:45:37.129Z,0.90
2023-02-20T05:46:09.459Z,0.63
2023-02-20T05:46:45.070Z,1.03
2023-02-20T05:47:17.771Z,0.87
2023-02-20T05:47:50.040Z,0.70
2023-02-20T05:48:24.881Z,1.07
2023-02-20T05:48:57.141Z,0.80
2023-02-20T05:49:32.389Z,0.80
2023-02-20T05:50:05.323Z,0.80
2023-02-20T05:50:37.699Z,1.70
2023-02-20T05:51:26.769Z,2.47
2023-02-20T05:51:59.248Z,3.10
2023-02-20T05:52:31.502Z,3.90
2023-02-20T05:53:06.412Z,2.90
2023-02-20T05:53:38.643Z,4.17
2023-02-20T05:54:10.900Z,6.60
2023-02-20T05:54:45.739Z,5.67
2023-02-20T05:55:18.150Z,6.50
2023-02-20T05:55:52.261Z,6.47
2023-02-20T05:56:27.960Z,7.63
2023-02-20T05:57:02.065Z,6.73
2023-02-20T05:57:34.483Z,9.00
2023-02-20T05:58:09.377Z,9.67
2023-02-20T05:58:42.443Z,6.30
2023-02-20T05:59:17.387Z,5.00
2023-02-20T05:59:52.223Z,8.03
2023-02-20T06:00:27.324Z,4.43
2023-02-20T06:00:59.552Z,7.27
2023-02-20T06:01:35.138Z,8.77
2023-02-20T06:02:07.429Z,15.00
2023-02-20T06:02:39.816Z,11.80
2023-02-20T06:03:14.716Z,13.10
2023-02-20T06:03:47.005Z,10.83
2023-02-20T06:04:19.595Z,10.57
2023-02-20T06:04:54.605Z,8.80
2023-02-20T06:05:28.350Z,8.17
2023-02-20T06:06:00.654Z,7.20
2023-02-20T06:06:36.410Z,5.10
2023-02-20T06:07:10.400Z,2.93
2023-02-20T06:07:46.739Z,1.57
2023-02-20T06:08:18.986Z,1.90
2023-02-20T06:08:51.251Z,1.53
2023-02-20T06:09:26.434Z,1.33
2023-02-20T06:09:58.726Z,1.27
2023-02-20T06:10:30.961Z,0.80
2023-02-20T06:11:05.865Z,0.90
2023-02-20T06:11:38.488Z,1.30
2023-02-20T06:12:11.093Z,1.00
2023-02-20T06:12:45.952Z,1.20
2023-02-20T06:13:18.186Z,1.10
2023-02-20T06:13:50.458Z,1.03
2023-02-20T06:14:27.441Z,1.03
2023-02-20T06:14:59.727Z,1.00
2023-02-20T06:15:34.667Z,0.90
2023-02-20T06:16:10.383Z,1.00
2023-02-20T06:16:42.717Z,0.80
2023-02-20T06:17:15.004Z,1.10
2023-02-20T06:17:49.847Z,1.10
2023-02-20T06:18:22.117Z,0.70
2023-02-20T06:18:54.817Z,0.90
2023-02-20T06:19:29.715Z,0.90
2023-02-20T06:20:02.003Z,0.87
2023-02-20T06:20:34.278Z,0.90
2023-02-20T06:21:10.710Z,0.97
2023-02-20T06:21:46.065Z,1.00
2023-02-20T06:22:21.712Z,1.00
2023-02-20T06:22:53.983Z,1.00
2023-02-20T06:23:28.813Z,0.93
2023-02-20T06:24:01.036Z,0.97
2023-02-20T06:24:35.902Z,1.00
2023-02-20T06:25:08.595Z,1.00
2023-02-20T06:25:40.814Z,0.83
2023-02-20T06:26:16.799Z,0.80
2023-02-20T06:26:49.125Z,0.83
2023-02-20T06:27:21.397Z,0.87
2023-02-20T06:27:56.216Z,0.80
2023-02-20T06:28:28.551Z,0.90
2023-02-20T06:29:00.834Z,1.03
2023-02-20T06:29:35.822Z,0.70
2023-02-20T06:30:09.405Z,1.10
2023-02-20T06:30:44.504Z,0.80
2023-02-20T06:31:25.238Z,1.10
2023-02-20T06:31:59.273Z,0.80
2023-02-20T06:32:31.598Z,1.00
2023-02-20T06:33:06.565Z,0.90
2023-02-20T06:33:38.790Z,0.90
2023-02-20T06:34:14.401Z,0.83
2023-02-20T06:34:46.922Z,0.83
2023-02-20T06:35:21.911Z,0.83
2023-02-20T06:35:54.156Z,0.90
2023-02-20T06:36:28.385Z,1.03
2023-02-20T06:37:04.197Z,1.00
2023-02-20T06:37:37.326Z,0.90
2023-02-20T06:38:09.595Z,0.80
2023-02-20T06:38:44.427Z,1.00
2023-02-20T06:39:16.806Z,1.00
2023-02-20T06:39:49.538Z,0.87
2023-02-20T06:40:24.627Z,0.70
2023-02-20T06:40:56.885Z,1.13
2023-02-20T06:41:29.149Z,0.90
2023-02-20T06:42:04.139Z,0.73
2023-02-20T06:42:36.391Z,0.93
2023-02-20T06:43:08.832Z,0.77
2023-02-20T06:43:43.657Z,0.80
2023-02-20T06:44:15.891Z,1.07
2023-02-20T06:44:48.140Z,0.87
2023-02-20T06:45:22.981Z,0.90
2023-02-20T06:45:57.874Z,0.80
2023-02-20T06:46:30.223Z,0.77
2023-02-20T06:47:08.983Z,0.90
2023-02-20T06:47:41.271Z,0.90
2023-02-20T06:48:17.496Z,0.83
2023-02-20T06:48:51.253Z,0.70
2023-02-20T06:49:23.499Z,1.00
2023-02-20T06:49:58.340Z,0.90
2023-02-20T06:50:30.612Z,0.80
2023-02-20T06:51:02.836Z,0.83
2023-02-20T06:51:37.758Z,0.80
2023-02-20T06:52:10.636Z,0.90
2023-02-20T06:52:42.941Z,1.00
2023-02-20T06:53:17.806Z,0.77
2023-02-20T06:53:50.249Z,0.90
2023-02-20T06:54:22.486Z,0.80
2023-02-20T06:54:57.312Z,0.63
2023-02-20T06:55:29.532Z,0.80
2023-02-20T06:56:02.192Z,0.97
2023-02-20T06:56:38.797Z,0.70
2023-02-20T06:57:11.367Z,0.60
2023-02-20T06:57:43.623Z,0.70
2023-02-20T06:58:18.662Z,0.77
2023-02-20T06:58:52.152Z,0.80
2023-02-20T06:59:25.279Z,0.87
2023-02-20T07:00:00.109Z,1.17
2023-02-20T07:00:32.579Z,0.80
2023-02-20T07:01:08.621Z,0.80
2023-02-20T07:01:45.895Z,0.87
2023-02-20T07:02:18.553Z,0.77
2023-02-20T07:02:53.525Z,0.90
2023-02-20T07:03:25.822Z,0.77
2023-02-20T07:04:03.053Z,0.80
2023-02-20T07:04:35.308Z,0.73
2023-02-20T07:05:09.463Z,0.70
2023-02-20T07:05:44.289Z,0.73
2023-02-20T07:06:17.085Z,0.90
2023-02-20T07:06:52.217Z,0.60
2023-02-20T07:07:24.458Z,0.80
2023-02-20T07:07:59.330Z,0.80
2023-02-20T07:08:32.591Z,0.60
2023-02-20T07:09:04.965Z,0.77
2023-02-20T07:09:39.926Z,0.70
2023-02-20T07:10:12.184Z,0.87
2023-02-20T07:10:44.677Z,1.00
2023-02-20T07:11:20.932Z,1.10
2023-02-20T07:11:53.320Z,0.70
2023-02-20T07:12:25.577Z,0.87
2023-02-20T07:13:00.437Z,0.90
2023-02-20T07:13:32.757Z,1.00
2023-02-20T07:14:05.182Z,1.03
2023-02-20T07:14:40.037Z,0.80
2023-02-20T07:15:12.880Z,0.83
2023-02-20T07:15:45.220Z,1.17
2023-02-20T07:16:22.911Z,0.70
2023-02-20T07:16:55.181Z,0.70
2023-02-20T07:17:27.421Z,0.70
2023-02-20T07:18:02.373Z,0.70
2023-02-20T07:18:34.670Z,1.00
2023-02-20T07:19:06.926Z,0.83
2023-02-20T07:19:41.807Z,0.80
2023-02-20T07:20:15.088Z,0.90
2023-02-20T07:20:47.315Z,1.00
2023-02-20T07:21:22.633Z,1.10
2023-02-20T07:21:54.930Z,0.80
2023-02-20T07:22:27.321Z,0.87
2023-02-20T07:23:02.156Z,0.80
2023-02-20T07:23:34.455Z,0.90
2023-02-20T07:24:07.486Z,0.90
2023-02-20T07:24:42.336Z,0.90
2023-02-20T07:25:14.788Z,1.00
2023-02-20T07:25:49.857Z,0.70
2023-02-20T07:26:26.682Z,1.00
2023-02-20T07:26:58.935Z,1.00
2023-02-20T07:27:31.202Z,0.90
2023-02-20T07:28:08.386Z,0.87
2023-02-20T07:28:40.652Z,1.17
2023-02-20T07:29:13.424Z,0.80
2023-02-20T07:29:48.735Z,0.77
2023-02-20T07:30:21.534Z,1.10
2023-02-20T07:30:53.864Z,0.90
2023-02-20T07:31:31.778Z,1.10
2023-02-20T07:32:04.272Z,1.00
2023-02-20T07:32:36.581Z,0.90
2023-02-20T07:33:11.479Z,1.00
2023-02-20T07:33:44.145Z,0.83
2023-02-20T07:34:16.528Z,0.80
2023-02-20T07:35:03.773Z,0.77
2023-02-20T07:35:38.372Z,1.10
2023-02-20T07:36:15.980Z,1.10
2023-02-20T07:36:48.204Z,1.00
2023-02-20T07:37:20.468Z,0.90
2023-02-20T07:37:55.345Z,0.80
2023-02-20T07:38:27.589Z,0.90
2023-02-20T07:39:01.502Z,1.20
2023-02-20T07:39:36.441Z,1.10
2023-02-20T07:40:09.687Z,1.00
2023-02-20T07:40:42.190Z,0.97
2023-02-20T07:41:18.492Z,1.30
2023-02-20T07:41:51.301Z,0.83
2023-02-20T07:42:46.257Z,1.07
2023-02-20T07:43:27.913Z,1.10
2023-02-20T07:44:02.751Z,1.20
2023-02-20T07:44:36.272Z,1.10
2023-02-20T07:45:10.085Z,0.80
2023-02-20T07:45:44.957Z,0.90
2023-02-20T07:46:20.113Z,1.20
2023-02-20T07:46:57.987Z,0.80
2023-02-20T07:47:30.218Z,0.80
2023-02-20T07:48:05.059Z,1.03
2023-02-20T07:48:37.424Z,0.90
2023-02-20T07:49:09.679Z,1.00
2023-02-20T07:49:44.543Z,0.83
2023-02-20T07:50:18.795Z,0.80
2023-02-20T07:50:52.701Z,0.90
2023-02-20T07:51:27.602Z,0.90
2023-02-20T07:52:00.077Z,1.07
2023-02-20T07:52:32.339Z,1.00
2023-02-20T07:53:07.179Z,1.20
2023-02-20T07:53:39.464Z,0.80
2023-02-20T07:54:11.975Z,1.20
2023-02-20T07:54:46.853Z,1.10
2023-02-20T07:55:19.391Z,0.80
2023-02-20T07:55:51.602Z,1.30
2023-02-20T07:56:26.720Z,0.90